sensor_id;sensor_type;location;lat;lon;timestamp;temperature;humidity
21306;DHT22;10812;51.838;5.838;2022-10-26T00:01:16;12.00;99.90
21306;DHT22;10812;51.838;5.838;2022-10-26T00:03:45;12.00;99.90
21306;DHT22;10812;51.838;5.838;2022-10-26T00:06:15;12.00;99.90
21306;DHT22;10812;51.838;5.838;2022-10-26T00:08:44;11.80;99.90
21306;DHT22;10812;51.838;5.838;2022-10-26T00:11:13;11.80;99.90
21306;DHT22;10812;51.838;5.838;2022-10-26T00:13:43;11.80;99.90
21306;DHT22;10812;51.838;5.838;2022-10-26T00:16:13;11.80;99.90
21306;DHT22;10812;51.838;5.838;2022-10-26T00:18:43;11.80;99.90
21306;DHT22;10812;51.838;5.838;2022-10-26T00:21:11;11.70;99.90
21306;DHT22;10812;51.838;5.838;2022-10-26T00:23:40;11.70;99.90
21306;DHT22;10812;51.838;5.838;2022-10-26T00:26:09;11.70;99.90
21306;DHT22;10812;51.838;5.838;2022-10-26T00:28:37;11.60;99.90
21306;DHT22;10812;51.838;5.838;2022-10-26T00:31:08;11.70;99.90
21306;DHT22;10812;51.838;5.838;2022-10-26T00:33:38;11.80;99.90
21306;DHT22;10812;51.838;5.838;2022-10-26T00:36:07;11.70;99.90
21306;DHT22;10812;51.838;5.838;2022-10-26T00:38:36;11.70;99.90
21306;DHT22;10812;51.838;5.838;2022-10-26T00:41:04;11.80;99.90
21306;DHT22;10812;51.838;5.838;2022-10-26T00:43:36;11.80;99.90
21306;DHT22;10812;51.838;5.838;2022-10-26T00:46:11;11.70;99.90
21306;DHT22;10812;51.838;5.838;2022-10-26T00:48:42;11.80;99.90
21306;DHT22;10812;51.838;5.838;2022-10-26T00:51:15;11.80;99.90
21306;DHT22;10812;51.838;5.838;2022-10-26T00:53:45;12.00;99.90
21306;DHT22;10812;51.838;5.838;2022-10-26T00:56:13;12.10;99.90
21306;DHT22;10812;51.838;5.838;2022-10-26T00:58:43;12.20;99.90
21306;DHT22;10812;51.838;5.838;2022-10-26T01:01:12;12.30;99.90
21306;DHT22;10812;51.838;5.838;2022-10-26T01:03:40;12.40;99.90
21306;DHT22;10812;51.838;5.838;2022-10-26T01:06:10;12.50;99.90
21306;DHT22;10812;51.838;5.838;2022-10-26T01:08:39;12.50;99.90
21306;DHT22;10812;51.838;5.838;2022-10-26T01:11:09;12.40;99.90
21306;DHT22;10812;51.838;5.838;2022-10-26T01:13:37;12.40;99.90
21306;DHT22;10812;51.838;5.838;2022-10-26T01:16:26;12.40;99.90
21306;DHT22;10812;51.838;5.838;2022-10-26T01:19:12;12.40;99.90
21306;DHT22;10812;51.838;5.838;2022-10-26T01:21:49;12.40;99.90
21306;DHT22;10812;51.838;5.838;2022-10-26T01:24:49;12.40;99.90
21306;DHT22;10812;51.838;5.838;2022-10-26T01:27:26;12.30;99.90
21306;DHT22;10812;51.838;5.838;2022-10-26T01:30:15;12.30;99.90
21306;DHT22;10812;51.838;5.838;2022-10-26T01:32:46;12.20;99.90
21306;DHT22;10812;51.838;5.838;2022-10-26T01:35:20;12.10;99.90
21306;DHT22;10812;51.838;5.838;2022-10-26T01:37:56;12.20;99.90
21306;DHT22;10812;51.838;5.838;2022-10-26T01:40:30;12.30;99.90
21306;DHT22;10812;51.838;5.838;2022-10-26T01:43:04;12.40;99.90
21306;DHT22;10812;51.838;5.838;2022-10-26T01:45:36;12.50;99.90
21306;DHT22;10812;51.838;5.838;2022-10-26T01:48:08;12.40;99.90
21306;DHT22;10812;51.838;5.838;2022-10-26T01:50:38;12.40;99.90
21306;DHT22;10812;51.838;5.838;2022-10-26T01:53:10;12.30;99.90
21306;DHT22;10812;51.838;5.838;2022-10-26T01:55:46;12.20;99.90
21306;DHT22;10812;51.838;5.838;2022-10-26T02:02:00;12.20;99.90
21306;DHT22;10812;51.838;5.838;2022-10-26T02:04:38;12.20;99.90
21306;DHT22;10812;51.838;5.838;2022-10-26T02:07:15;12.20;99.90
21306;DHT22;10812;51.838;5.838;2022-10-26T02:09:52;12.20;99.90
21306;DHT22;10812;51.838;5.838;2022-10-26T02:12:29;12.30;99.90
21306;DHT22;10812;51.838;5.838;2022-10-26T02:15:06;12.40;99.90
21306;DHT22;10812;51.838;5.838;2022-10-26T02:17:43;12.50;99.90
21306;DHT22;10812;51.838;5.838;2022-10-26T02:20:17;12.60;99.90
21306;DHT22;10812;51.838;5.838;2022-10-26T02:22:48;12.60;99.90
21306;DHT22;10812;51.838;5.838;2022-10-26T02:25:21;12.60;99.90
21306;DHT22;10812;51.838;5.838;2022-10-26T02:27:52;12.70;99.90
21306;DHT22;10812;51.838;5.838;2022-10-26T02:30:22;12.70;99.90
21306;DHT22;10812;51.838;5.838;2022-10-26T02:32:54;12.70;99.90
21306;DHT22;10812;51.838;5.838;2022-10-26T02:35:29;12.70;99.90
21306;DHT22;10812;51.838;5.838;2022-10-26T02:37:59;12.70;99.90
21306;DHT22;10812;51.838;5.838;2022-10-26T02:40:28;12.60;99.90
21306;DHT22;10812;51.838;5.838;2022-10-26T02:43:00;12.50;99.90
21306;DHT22;10812;51.838;5.838;2022-10-26T02:45:35;12.40;99.90
21306;DHT22;10812;51.838;5.838;2022-10-26T02:48:06;12.20;99.90
21306;DHT22;10812;51.838;5.838;2022-10-26T02:50:39;12.20;99.90
21306;DHT22;10812;51.838;5.838;2022-10-26T02:53:13;12.20;99.90
21306;DHT22;10812;51.838;5.838;2022-10-26T02:55:48;12.30;99.90
21306;DHT22;10812;51.838;5.838;2022-10-26T02:58:21;12.40;99.90
21306;DHT22;10812;51.838;5.838;2022-10-26T03:06:11;12.30;99.90
21306;DHT22;10812;51.838;5.838;2022-10-26T03:08:40;12.30;99.90
21306;DHT22;10812;51.838;5.838;2022-10-26T03:11:08;12.40;99.90
21306;DHT22;10812;51.838;5.838;2022-10-26T03:13:36;12.40;99.90
21306;DHT22;10812;51.838;5.838;2022-10-26T03:16:04;12.50;99.90
21306;DHT22;10812;51.838;5.838;2022-10-26T03:18:32;12.40;99.90
21306;DHT22;10812;51.838;5.838;2022-10-26T03:21:00;12.40;99.90
21306;DHT22;10812;51.838;5.838;2022-10-26T03:23:29;12.50;99.90
21306;DHT22;10812;51.838;5.838;2022-10-26T03:25:58;12.50;99.90
21306;DHT22;10812;51.838;5.838;2022-10-26T03:28:26;12.60;99.90
21306;DHT22;10812;51.838;5.838;2022-10-26T03:30:54;12.60;99.90
21306;DHT22;10812;51.838;5.838;2022-10-26T03:33:22;12.60;99.90
21306;DHT22;10812;51.838;5.838;2022-10-26T03:35:54;12.50;99.90
21306;DHT22;10812;51.838;5.838;2022-10-26T03:38:23;12.40;99.90
21306;DHT22;10812;51.838;5.838;2022-10-26T03:40:52;12.20;99.90
21306;DHT22;10812;51.838;5.838;2022-10-26T03:43:20;12.20;99.90
21306;DHT22;10812;51.838;5.838;2022-10-26T03:45:48;12.10;99.90
21306;DHT22;10812;51.838;5.838;2022-10-26T03:48:17;12.10;99.90
21306;DHT22;10812;51.838;5.838;2022-10-26T03:50:45;12.10;99.90
21306;DHT22;10812;51.838;5.838;2022-10-26T03:53:13;12.10;99.90
21306;DHT22;10812;51.838;5.838;2022-10-26T03:55:43;12.10;99.90
21306;DHT22;10812;51.838;5.838;2022-10-26T03:58:12;12.10;99.90
21306;DHT22;10812;51.838;5.838;2022-10-26T04:00:40;12.30;99.90
21306;DHT22;10812;51.838;5.838;2022-10-26T04:03:08;12.40;99.90
21306;DHT22;10812;51.838;5.838;2022-10-26T04:05:36;12.50;99.90
21306;DHT22;10812;51.838;5.838;2022-10-26T04:08:04;12.50;99.90
21306;DHT22;10812;51.838;5.838;2022-10-26T04:10:32;12.60;99.90
21306;DHT22;10812;51.838;5.838;2022-10-26T04:13:00;12.70;99.90
21306;DHT22;10812;51.838;5.838;2022-10-26T04:15:30;12.70;99.90
21306;DHT22;10812;51.838;5.838;2022-10-26T04:17:59;12.80;99.90
21306;DHT22;10812;51.838;5.838;2022-10-26T04:20:28;12.70;99.90
21306;DHT22;10812;51.838;5.838;2022-10-26T04:22:58;12.70;99.90
21306;DHT22;10812;51.838;5.838;2022-10-26T04:25:27;12.80;99.90
21306;DHT22;10812;51.838;5.838;2022-10-26T04:27:59;12.80;99.90
21306;DHT22;10812;51.838;5.838;2022-10-26T04:30:27;12.90;99.90
21306;DHT22;10812;51.838;5.838;2022-10-26T04:32:56;12.90;99.90
21306;DHT22;10812;51.838;5.838;2022-10-26T04:35:24;13.00;99.90
21306;DHT22;10812;51.838;5.838;2022-10-26T04:37:56;13.00;99.90
21306;DHT22;10812;51.838;5.838;2022-10-26T04:40:25;13.00;99.90
21306;DHT22;10812;51.838;5.838;2022-10-26T04:42:54;13.00;99.90
21306;DHT22;10812;51.838;5.838;2022-10-26T04:45:22;13.00;99.90
21306;DHT22;10812;51.838;5.838;2022-10-26T04:48:03;13.10;99.90
21306;DHT22;10812;51.838;5.838;2022-10-26T04:50:31;13.10;99.90
21306;DHT22;10812;51.838;5.838;2022-10-26T04:52:59;13.10;99.90
21306;DHT22;10812;51.838;5.838;2022-10-26T04:55:28;13.10;99.90
21306;DHT22;10812;51.838;5.838;2022-10-26T04:57:56;13.10;99.90
21306;DHT22;10812;51.838;5.838;2022-10-26T05:00:27;13.10;99.90
21306;DHT22;10812;51.838;5.838;2022-10-26T05:02:59;13.20;99.90
21306;DHT22;10812;51.838;5.838;2022-10-26T05:05:29;13.20;99.90
21306;DHT22;10812;51.838;5.838;2022-10-26T05:07:57;13.20;99.90
21306;DHT22;10812;51.838;5.838;2022-10-26T05:10:26;13.20;99.90
21306;DHT22;10812;51.838;5.838;2022-10-26T05:12:55;13.30;99.90
21306;DHT22;10812;51.838;5.838;2022-10-26T05:15:25;13.30;99.90
21306;DHT22;10812;51.838;5.838;2022-10-26T05:17:54;13.40;99.90
21306;DHT22;10812;51.838;5.838;2022-10-26T05:20:25;13.40;99.90
21306;DHT22;10812;51.838;5.838;2022-10-26T05:22:56;13.50;99.90
21306;DHT22;10812;51.838;5.838;2022-10-26T05:25:25;13.50;99.90
21306;DHT22;10812;51.838;5.838;2022-10-26T05:27:56;13.40;99.90
21306;DHT22;10812;51.838;5.838;2022-10-26T05:30:25;13.40;99.90
21306;DHT22;10812;51.838;5.838;2022-10-26T05:32:53;13.40;99.90
21306;DHT22;10812;51.838;5.838;2022-10-26T05:35:21;13.30;99.90
21306;DHT22;10812;51.838;5.838;2022-10-26T05:37:51;13.30;99.90
21306;DHT22;10812;51.838;5.838;2022-10-26T05:40:20;13.30;99.90
21306;DHT22;10812;51.838;5.838;2022-10-26T05:42:48;13.20;99.90
21306;DHT22;10812;51.838;5.838;2022-10-26T05:45:17;13.30;99.90
21306;DHT22;10812;51.838;5.838;2022-10-26T05:47:45;13.30;99.90
21306;DHT22;10812;51.838;5.838;2022-10-26T05:50:14;13.30;99.90
21306;DHT22;10812;51.838;5.838;2022-10-26T05:52:43;13.30;99.90
21306;DHT22;10812;51.838;5.838;2022-10-26T05:55:15;13.30;99.90
21306;DHT22;10812;51.838;5.838;2022-10-26T05:57:44;13.40;99.90
21306;DHT22;10812;51.838;5.838;2022-10-26T06:00:16;13.40;99.90
21306;DHT22;10812;51.838;5.838;2022-10-26T06:02:59;13.40;99.90
21306;DHT22;10812;51.838;5.838;2022-10-26T06:05:34;13.30;99.90
21306;DHT22;10812;51.838;5.838;2022-10-26T06:08:07;13.30;99.90
21306;DHT22;10812;51.838;5.838;2022-10-26T06:10:39;13.30;99.90
21306;DHT22;10812;51.838;5.838;2022-10-26T06:13:07;13.40;99.90
21306;DHT22;10812;51.838;5.838;2022-10-26T06:15:43;13.30;99.90
21306;DHT22;10812;51.838;5.838;2022-10-26T06:18:19;13.40;99.90
21306;DHT22;10812;51.838;5.838;2022-10-26T06:20:59;13.30;99.90
21306;DHT22;10812;51.838;5.838;2022-10-26T06:23:41;13.40;99.90
21306;DHT22;10812;51.838;5.838;2022-10-26T06:26:23;13.50;99.90
21306;DHT22;10812;51.838;5.838;2022-10-26T06:29:02;13.50;99.90
21306;DHT22;10812;51.838;5.838;2022-10-26T06:31:32;13.50;99.90
21306;DHT22;10812;51.838;5.838;2022-10-26T06:34:00;13.40;99.90
21306;DHT22;10812;51.838;5.838;2022-10-26T06:36:29;13.30;99.90
21306;DHT22;10812;51.838;5.838;2022-10-26T06:39:01;13.30;99.90
21306;DHT22;10812;51.838;5.838;2022-10-26T06:41:32;13.20;99.90
21306;DHT22;10812;51.838;5.838;2022-10-26T06:44:02;13.20;99.90
21306;DHT22;10812;51.838;5.838;2022-10-26T06:46:35;13.20;99.90
21306;DHT22;10812;51.838;5.838;2022-10-26T06:49:13;13.20;99.90
21306;DHT22;10812;51.838;5.838;2022-10-26T06:51:50;13.20;99.90
21306;DHT22;10812;51.838;5.838;2022-10-26T06:54:23;13.20;99.90
21306;DHT22;10812;51.838;5.838;2022-10-26T06:56:54;13.20;99.90
21306;DHT22;10812;51.838;5.838;2022-10-26T06:59:30;13.20;99.90
21306;DHT22;10812;51.838;5.838;2022-10-26T07:02:00;13.30;99.90
21306;DHT22;10812;51.838;5.838;2022-10-26T07:04:32;13.40;99.90
21306;DHT22;10812;51.838;5.838;2022-10-26T07:07:00;13.30;99.90
21306;DHT22;10812;51.838;5.838;2022-10-26T07:09:28;13.30;99.90
21306;DHT22;10812;51.838;5.838;2022-10-26T07:11:58;13.40;99.90
21306;DHT22;10812;51.838;5.838;2022-10-26T07:14:26;13.50;99.90
21306;DHT22;10812;51.838;5.838;2022-10-26T07:16:54;13.50;99.90
21306;DHT22;10812;51.838;5.838;2022-10-26T07:19:22;13.60;99.90
21306;DHT22;10812;51.838;5.838;2022-10-26T07:21:52;14.50;99.90
21306;DHT22;10812;51.838;5.838;2022-10-26T07:24:22;16.00;99.90
21306;DHT22;10812;51.838;5.838;2022-10-26T07:26:52;17.50;99.90
21306;DHT22;10812;51.838;5.838;2022-10-26T07:29:21;18.90;99.90
21306;DHT22;10812;51.838;5.838;2022-10-26T07:31:50;19.80;99.90
21306;DHT22;10812;51.838;5.838;2022-10-26T07:34:19;20.40;99.90
21306;DHT22;10812;51.838;5.838;2022-10-26T07:36:47;21.00;99.90
21306;DHT22;10812;51.838;5.838;2022-10-26T07:39:17;21.40;99.90
21306;DHT22;10812;51.838;5.838;2022-10-26T07:41:45;21.50;99.90
21306;DHT22;10812;51.838;5.838;2022-10-26T07:44:13;21.90;99.90
21306;DHT22;10812;51.838;5.838;2022-10-26T07:46:43;22.00;99.90
21306;DHT22;10812;51.838;5.838;2022-10-26T07:49:11;21.90;99.90
21306;DHT22;10812;51.838;5.838;2022-10-26T07:51:44;22.10;99.90
21306;DHT22;10812;51.838;5.838;2022-10-26T07:54:12;22.30;99.90
21306;DHT22;10812;51.838;5.838;2022-10-26T07:56:41;22.40;99.90
21306;DHT22;10812;51.838;5.838;2022-10-26T07:59:10;22.50;99.90
21306;DHT22;10812;51.838;5.838;2022-10-26T08:01:38;23.00;99.90
21306;DHT22;10812;51.838;5.838;2022-10-26T08:04:07;23.10;99.90
21306;DHT22;10812;51.838;5.838;2022-10-26T08:06:36;22.90;99.90
21306;DHT22;10812;51.838;5.838;2022-10-26T08:09:04;23.00;99.90
21306;DHT22;10812;51.838;5.838;2022-10-26T08:11:32;22.60;99.90
21306;DHT22;10812;51.838;5.838;2022-10-26T08:14:03;22.40;99.90
21306;DHT22;10812;51.838;5.838;2022-10-26T08:16:31;22.40;99.90
21306;DHT22;10812;51.838;5.838;2022-10-26T08:19:00;22.50;99.90
21306;DHT22;10812;51.838;5.838;2022-10-26T08:21:30;22.20;99.90
21306;DHT22;10812;51.838;5.838;2022-10-26T08:24:07;22.20;99.90
21306;DHT22;10812;51.838;5.838;2022-10-26T08:26:35;22.20;99.90
21306;DHT22;10812;51.838;5.838;2022-10-26T08:29:03;22.40;99.90
21306;DHT22;10812;51.838;5.838;2022-10-26T08:31:32;22.20;99.90
21306;DHT22;10812;51.838;5.838;2022-10-26T08:34:00;22.10;99.90
21306;DHT22;10812;51.838;5.838;2022-10-26T08:36:31;21.90;99.90
21306;DHT22;10812;51.838;5.838;2022-10-26T08:38:59;22.10;99.90
21306;DHT22;10812;51.838;5.838;2022-10-26T08:41:33;21.80;99.90
21306;DHT22;10812;51.838;5.838;2022-10-26T08:44:07;21.80;99.90
21306;DHT22;10812;51.838;5.838;2022-10-26T08:46:41;21.90;99.90
21306;DHT22;10812;51.838;5.838;2022-10-26T08:49:17;22.10;99.90
21306;DHT22;10812;51.838;5.838;2022-10-26T08:51:51;22.40;99.90
21306;DHT22;10812;51.838;5.838;2022-10-26T08:54:29;22.10;99.90
21306;DHT22;10812;51.838;5.838;2022-10-26T08:57:03;22.40;99.90
21306;DHT22;10812;51.838;5.838;2022-10-26T08:59:36;22.40;99.90
21306;DHT22;10812;51.838;5.838;2022-10-26T09:02:11;22.40;99.90
21306;DHT22;10812;51.838;5.838;2022-10-26T09:04:39;22.70;99.90
21306;DHT22;10812;51.838;5.838;2022-10-26T09:07:13;22.80;99.90
21306;DHT22;10812;51.838;5.838;2022-10-26T09:09:54;22.50;99.90
21306;DHT22;10812;51.838;5.838;2022-10-26T09:12:30;22.50;99.90
21306;DHT22;10812;51.838;5.838;2022-10-26T09:15:08;22.10;99.90
21306;DHT22;10812;51.838;5.838;2022-10-26T09:17:47;21.60;99.90
21306;DHT22;10812;51.838;5.838;2022-10-26T09:23:30;21.90;99.90
21306;DHT22;10812;51.838;5.838;2022-10-26T09:26:10;22.50;99.90
21306;DHT22;10812;51.838;5.838;2022-10-26T09:28:40;22.50;99.90
21306;DHT22;10812;51.838;5.838;2022-10-26T09:31:14;21.90;99.90
21306;DHT22;10812;51.838;5.838;2022-10-26T09:33:43;21.10;99.90
21306;DHT22;10812;51.838;5.838;2022-10-26T09:36:16;20.50;99.90
21306;DHT22;10812;51.838;5.838;2022-10-26T09:38:52;19.90;99.90
21306;DHT22;10812;51.838;5.838;2022-10-26T09:41:26;19.60;99.90
21306;DHT22;10812;51.838;5.838;2022-10-26T09:44:02;19.20;99.90
21306;DHT22;10812;51.838;5.838;2022-10-26T09:46:34;19.00;99.90
21306;DHT22;10812;51.838;5.838;2022-10-26T09:49:05;18.90;99.90
21306;DHT22;10812;51.838;5.838;2022-10-26T09:51:37;18.90;99.90
21306;DHT22;10812;51.838;5.838;2022-10-26T09:54:13;18.80;99.90
21306;DHT22;10812;51.838;5.838;2022-10-26T09:56:43;18.80;99.90
21306;DHT22;10812;51.838;5.838;2022-10-26T09:59:12;18.70;99.90
21306;DHT22;10812;51.838;5.838;2022-10-26T10:01:41;18.70;99.90
21306;DHT22;10812;51.838;5.838;2022-10-26T10:04:17;18.80;99.90
21306;DHT22;10812;51.838;5.838;2022-10-26T10:06:47;18.80;99.90
21306;DHT22;10812;51.838;5.838;2022-10-26T10:09:19;18.90;99.90
21306;DHT22;10812;51.838;5.838;2022-10-26T10:11:51;18.90;99.90
21306;DHT22;10812;51.838;5.838;2022-10-26T10:14:23;19.00;99.90
21306;DHT22;10812;51.838;5.838;2022-10-26T10:16:53;19.00;99.90
21306;DHT22;10812;51.838;5.838;2022-10-26T10:19:24;19.20;99.90
21306;DHT22;10812;51.838;5.838;2022-10-26T10:21:57;19.40;99.90
21306;DHT22;10812;51.838;5.838;2022-10-26T10:24:29;19.40;99.90
21306;DHT22;10812;51.838;5.838;2022-10-26T10:27:00;19.40;99.90
21306;DHT22;10812;51.838;5.838;2022-10-26T10:29:30;19.40;99.90
21306;DHT22;10812;51.838;5.838;2022-10-26T10:32:00;19.50;99.90
21306;DHT22;10812;51.838;5.838;2022-10-26T10:34:32;19.60;99.90
21306;DHT22;10812;51.838;5.838;2022-10-26T10:37:02;19.70;99.90
21306;DHT22;10812;51.838;5.838;2022-10-26T10:39:37;19.60;99.90
21306;DHT22;10812;51.838;5.838;2022-10-26T10:42:14;19.50;99.90
21306;DHT22;10812;51.838;5.838;2022-10-26T10:44:44;19.50;99.90
21306;DHT22;10812;51.838;5.838;2022-10-26T10:47:22;19.50;99.90
21306;DHT22;10812;51.838;5.838;2022-10-26T10:49:53;19.50;99.90
21306;DHT22;10812;51.838;5.838;2022-10-26T10:52:25;19.50;99.90
21306;DHT22;10812;51.838;5.838;2022-10-26T10:55:08;19.40;99.90
21306;DHT22;10812;51.838;5.838;2022-10-26T10:57:49;19.40;99.90
21306;DHT22;10812;51.838;5.838;2022-10-26T11:00:23;19.40;99.90
21306;DHT22;10812;51.838;5.838;2022-10-26T11:06:03;19.60;99.90
21306;DHT22;10812;51.838;5.838;2022-10-26T11:08:37;19.70;99.90
21306;DHT22;10812;51.838;5.838;2022-10-26T11:11:10;19.70;99.90
21306;DHT22;10812;51.838;5.838;2022-10-26T11:13:48;19.80;99.90
21306;DHT22;10812;51.838;5.838;2022-10-26T11:16:22;19.80;99.90
21306;DHT22;10812;51.838;5.838;2022-10-26T11:18:55;19.70;99.90
21306;DHT22;10812;51.838;5.838;2022-10-26T11:21:26;19.70;99.90
21306;DHT22;10812;51.838;5.838;2022-10-26T11:31:31;19.70;99.90
21306;DHT22;10812;51.838;5.838;2022-10-26T11:34:14;19.80;99.90
21306;DHT22;10812;51.838;5.838;2022-10-26T11:36:47;19.70;99.90
21306;DHT22;10812;51.838;5.838;2022-10-26T11:39:21;19.70;99.90
21306;DHT22;10812;51.838;5.838;2022-10-26T11:41:56;19.70;99.90
21306;DHT22;10812;51.838;5.838;2022-10-26T11:44:29;19.80;99.90
21306;DHT22;10812;51.838;5.838;2022-10-26T11:47:03;19.80;99.90
21306;DHT22;10812;51.838;5.838;2022-10-26T11:49:38;19.90;99.90
21306;DHT22;10812;51.838;5.838;2022-10-26T11:52:12;19.80;99.90
21306;DHT22;10812;51.838;5.838;2022-10-26T11:54:46;19.90;99.90
21306;DHT22;10812;51.838;5.838;2022-10-26T12:08:49;20.10;99.90
21306;DHT22;10812;51.838;5.838;2022-10-26T12:11:28;20.10;99.90
21306;DHT22;10812;51.838;5.838;2022-10-26T12:14:01;20.20;99.90
21306;DHT22;10812;51.838;5.838;2022-10-26T12:16:42;20.10;99.90
21306;DHT22;10812;51.838;5.838;2022-10-26T12:19:16;20.10;99.90
21306;DHT22;10812;51.838;5.838;2022-10-26T12:21:45;20.00;99.90
21306;DHT22;10812;51.838;5.838;2022-10-26T12:24:28;20.00;99.90
21306;DHT22;10812;51.838;5.838;2022-10-26T12:27:00;19.90;99.90
21306;DHT22;10812;51.838;5.838;2022-10-26T12:51:59;19.70;99.90
21306;DHT22;10812;51.838;5.838;2022-10-26T12:54:37;19.70;99.90
21306;DHT22;10812;51.838;5.838;2022-10-26T12:57:19;19.60;99.90
21306;DHT22;10812;51.838;5.838;2022-10-26T12:59:53;19.70;99.90
21306;DHT22;10812;51.838;5.838;2022-10-26T13:02:42;19.60;99.90
21306;DHT22;10812;51.838;5.838;2022-10-26T13:08:17;19.60;99.90
21306;DHT22;10812;51.838;5.838;2022-10-26T13:11:00;19.50;99.90
21306;DHT22;10812;51.838;5.838;2022-10-26T13:13:30;19.60;99.90
21306;DHT22;10812;51.838;5.838;2022-10-26T13:16:01;19.60;99.90
21306;DHT22;10812;51.838;5.838;2022-10-26T13:18:29;19.50;99.90
21306;DHT22;10812;51.838;5.838;2022-10-26T13:21:02;19.50;99.90
21306;DHT22;10812;51.838;5.838;2022-10-26T13:23:36;19.50;99.90
21306;DHT22;10812;51.838;5.838;2022-10-26T13:26:07;19.60;99.90
21306;DHT22;10812;51.838;5.838;2022-10-26T13:28:48;19.50;99.90
21306;DHT22;10812;51.838;5.838;2022-10-26T13:31:51;19.50;99.90
21306;DHT22;10812;51.838;5.838;2022-10-26T13:34:22;19.50;99.90
21306;DHT22;10812;51.838;5.838;2022-10-26T13:36:54;19.50;99.90
21306;DHT22;10812;51.838;5.838;2022-10-26T13:39:30;19.50;99.90
21306;DHT22;10812;51.838;5.838;2022-10-26T13:41:59;19.60;99.90
21306;DHT22;10812;51.838;5.838;2022-10-26T13:44:32;19.60;99.90
21306;DHT22;10812;51.838;5.838;2022-10-26T13:47:05;19.60;99.90
21306;DHT22;10812;51.838;5.838;2022-10-26T13:49:38;19.60;99.90
21306;DHT22;10812;51.838;5.838;2022-10-26T13:52:14;19.70;99.90
21306;DHT22;10812;51.838;5.838;2022-10-26T13:54:47;19.70;99.90
21306;DHT22;10812;51.838;5.838;2022-10-26T13:57:18;19.70;99.90
21306;DHT22;10812;51.838;5.838;2022-10-26T13:59:48;19.70;99.90
21306;DHT22;10812;51.838;5.838;2022-10-26T14:02:21;19.70;99.90
21306;DHT22;10812;51.838;5.838;2022-10-26T14:04:52;19.70;99.90
21306;DHT22;10812;51.838;5.838;2022-10-26T14:07:25;19.60;99.90
21306;DHT22;10812;51.838;5.838;2022-10-26T14:09:57;19.60;99.90
21306;DHT22;10812;51.838;5.838;2022-10-26T14:12:29;19.70;99.90
21306;DHT22;10812;51.838;5.838;2022-10-26T14:22:02;19.60;99.90
21306;DHT22;10812;51.838;5.838;2022-10-26T14:24:32;19.60;99.90
21306;DHT22;10812;51.838;5.838;2022-10-26T14:27:16;19.60;99.90
21306;DHT22;10812;51.838;5.838;2022-10-26T14:29:45;19.60;99.90
21306;DHT22;10812;51.838;5.838;2022-10-26T14:32:33;19.50;99.90
21306;DHT22;10812;51.838;5.838;2022-10-26T14:47:35;19.50;99.90
21306;DHT22;10812;51.838;5.838;2022-10-26T14:50:04;19.60;99.90
21306;DHT22;10812;51.838;5.838;2022-10-26T14:52:34;19.60;99.90
21306;DHT22;10812;51.838;5.838;2022-10-26T14:55:11;19.60;99.90
21306;DHT22;10812;51.838;5.838;2022-10-26T14:57:42;19.60;99.90
21306;DHT22;10812;51.838;5.838;2022-10-26T15:00:14;19.60;99.90
21306;DHT22;10812;51.838;5.838;2022-10-26T15:02:45;19.60;99.90
21306;DHT22;10812;51.838;5.838;2022-10-26T15:05:21;19.60;99.90
21306;DHT22;10812;51.838;5.838;2022-10-26T15:07:52;19.60;99.90
21306;DHT22;10812;51.838;5.838;2022-10-26T15:10:44;19.60;99.90
21306;DHT22;10812;51.838;5.838;2022-10-26T15:13:23;19.60;99.90
21306;DHT22;10812;51.838;5.838;2022-10-26T15:15:55;19.60;99.90
21306;DHT22;10812;51.838;5.838;2022-10-26T15:18:28;19.50;99.90
21306;DHT22;10812;51.838;5.838;2022-10-26T15:20:57;19.50;99.90
21306;DHT22;10812;51.838;5.838;2022-10-26T15:23:27;19.50;99.90
21306;DHT22;10812;51.838;5.838;2022-10-26T15:25:58;19.50;99.90
21306;DHT22;10812;51.838;5.838;2022-10-26T15:31:33;19.40;99.90
21306;DHT22;10812;51.838;5.838;2022-10-26T15:34:21;19.30;99.90
21306;DHT22;10812;51.838;5.838;2022-10-26T15:36:50;19.20;99.90
21306;DHT22;10812;51.838;5.838;2022-10-26T15:39:18;19.10;99.90
21306;DHT22;10812;51.838;5.838;2022-10-26T15:41:46;19.10;99.90
21306;DHT22;10812;51.838;5.838;2022-10-26T15:44:19;19.00;99.90
21306;DHT22;10812;51.838;5.838;2022-10-26T15:46:48;19.00;99.90
21306;DHT22;10812;51.838;5.838;2022-10-26T15:49:19;19.10;99.90
21306;DHT22;10812;51.838;5.838;2022-10-26T15:51:48;19.20;99.90
21306;DHT22;10812;51.838;5.838;2022-10-26T15:54:16;19.10;99.90
21306;DHT22;10812;51.838;5.838;2022-10-26T15:56:44;19.10;99.90
21306;DHT22;10812;51.838;5.838;2022-10-26T15:59:15;19.10;99.90
21306;DHT22;10812;51.838;5.838;2022-10-26T16:01:44;19.00;99.90
21306;DHT22;10812;51.838;5.838;2022-10-26T16:04:12;18.90;99.90
21306;DHT22;10812;51.838;5.838;2022-10-26T16:06:43;18.80;99.90
21306;DHT22;10812;51.838;5.838;2022-10-26T16:09:13;18.70;99.90
21306;DHT22;10812;51.838;5.838;2022-10-26T16:11:43;18.50;99.90
21306;DHT22;10812;51.838;5.838;2022-10-26T16:14:11;18.40;99.90
21306;DHT22;10812;51.838;5.838;2022-10-26T16:16:39;18.30;99.90
21306;DHT22;10812;51.838;5.838;2022-10-26T16:19:09;18.20;99.90
21306;DHT22;10812;51.838;5.838;2022-10-26T16:21:57;18.10;99.90
21306;DHT22;10812;51.838;5.838;2022-10-26T16:24:26;18.00;99.90
21306;DHT22;10812;51.838;5.838;2022-10-26T16:26:54;17.90;99.90
21306;DHT22;10812;51.838;5.838;2022-10-26T16:29:23;17.80;99.90
21306;DHT22;10812;51.838;5.838;2022-10-26T16:31:51;17.90;99.90
21306;DHT22;10812;51.838;5.838;2022-10-26T16:34:19;17.70;99.90
21306;DHT22;10812;51.838;5.838;2022-10-26T16:36:47;17.60;99.90
21306;DHT22;10812;51.838;5.838;2022-10-26T16:39:16;17.50;99.90
21306;DHT22;10812;51.838;5.838;2022-10-26T16:41:47;17.50;99.90
21306;DHT22;10812;51.838;5.838;2022-10-26T16:44:16;17.40;99.90
21306;DHT22;10812;51.838;5.838;2022-10-26T16:46:44;17.40;99.90
21306;DHT22;10812;51.838;5.838;2022-10-26T16:49:12;17.40;99.90
21306;DHT22;10812;51.838;5.838;2022-10-26T16:51:40;17.40;99.90
21306;DHT22;10812;51.838;5.838;2022-10-26T16:54:08;17.40;99.90
21306;DHT22;10812;51.838;5.838;2022-10-26T16:56:37;17.40;99.90
21306;DHT22;10812;51.838;5.838;2022-10-26T16:59:08;17.50;99.90
21306;DHT22;10812;51.838;5.838;2022-10-26T17:01:36;17.50;99.90
21306;DHT22;10812;51.838;5.838;2022-10-26T17:04:04;17.60;99.90
21306;DHT22;10812;51.838;5.838;2022-10-26T17:06:33;17.60;99.90
21306;DHT22;10812;51.838;5.838;2022-10-26T17:09:01;17.60;99.90
21306;DHT22;10812;51.838;5.838;2022-10-26T17:11:29;17.70;99.90
21306;DHT22;10812;51.838;5.838;2022-10-26T17:13:58;17.80;99.90
21306;DHT22;10812;51.838;5.838;2022-10-26T17:16:26;17.70;99.90
21306;DHT22;10812;51.838;5.838;2022-10-26T17:18:55;17.70;99.90
21306;DHT22;10812;51.838;5.838;2022-10-26T17:21:28;17.60;99.90